ADDS METAR Data INFO
IDs: Format: Raw Decoded Include TAF

Data at: 1541 UTC 18 Jan 2018

METAR for:KLUK (Cincinnati/Lunken Ar, OH, US)
Text:KLUK 181453Z 22008KT 10SM CLR M08/M13 A3040 RMK AO2 SLP304 T10831128 58002
Temperature: -8.3°C ( 17°F)
Dewpoint:-12.8°C ( 9°F) [RH = 70%]
Pressure (altimeter):30.40 inches Hg (1029.5 mb) [Sea level pressure: 1030.4 mb]
Winds:from the SW (220 degrees) at 9 MPH (8 knots; 4.1 m/s)
Visibility:10 or more sm (16+ km)
Ceiling:at least 12,000 feet AGL
Clouds:sky clear below 12,000 feet AGL